sensor_id;sensor_type;location;lat;lon;timestamp;pressure;altitude;pressure_sealevel;temperature;humidity
71621;BME280;59471;42.254;23.102;2022-10-31T00:01:35;96396.28;;;10.93;65.91
71621;BME280;59471;42.254;23.102;2022-10-31T00:04:02;96403.81;;;10.96;65.75
71621;BME280;59471;42.254;23.102;2022-10-31T00:06:28;96394.34;;;10.78;66.02
71621;BME280;59471;42.254;23.102;2022-10-31T00:08:57;96402.16;;;11.03;65.16
71621;BME280;59471;42.254;23.102;2022-10-31T00:11:24;96396.28;;;10.93;65.35
71621;BME280;59471;42.254;23.102;2022-10-31T00:13:50;96402.78;;;11.21;64.75
71621;BME280;59471;42.254;23.102;2022-10-31T00:16:17;96405.47;;;10.88;66.42
71621;BME280;59471;42.254;23.102;2022-10-31T00:18:48;96402.84;;;10.80;66.03
71621;BME280;59471;42.254;23.102;2022-10-31T00:21:14;96397.44;;;10.90;66.42
71621;BME280;59471;42.254;23.102;2022-10-31T00:23:40;96394.97;;;10.97;66.20
71621;BME280;59471;42.254;23.102;2022-10-31T00:26:06;96382.53;;;11.07;66.35
71621;BME280;59471;42.254;23.102;2022-10-31T00:28:32;96384.13;;;11.16;65.44
71621;BME280;59471;42.254;23.102;2022-10-31T00:31:02;96391.97;;;11.32;64.36
71621;BME280;59471;42.254;23.102;2022-10-31T00:33:30;96392.91;;;11.40;63.98
71621;BME280;59471;42.254;23.102;2022-10-31T00:35:56;96393.59;;;11.33;64.62
71621;BME280;59471;42.254;23.102;2022-10-31T00:38:22;96390.91;;;10.94;65.68
71621;BME280;59471;42.254;23.102;2022-10-31T00:40:47;96389.91;;;10.87;66.31
71621;BME280;59471;42.254;23.102;2022-10-31T00:43:13;96390.38;;;10.99;66.27
71621;BME280;59471;42.254;23.102;2022-10-31T00:45:39;96386.72;;;11.32;64.56
71621;BME280;59471;42.254;23.102;2022-10-31T00:48:07;96386.72;;;11.24;65.15
71621;BME280;59471;42.254;23.102;2022-10-31T00:50:32;96383.88;;;10.78;66.80
71621;BME280;59471;42.254;23.102;2022-10-31T00:52:58;96387.94;;;10.89;66.28
71621;BME280;59471;42.254;23.102;2022-10-31T00:55:23;96385.78;;;11.09;65.27
71621;BME280;59471;42.254;23.102;2022-10-31T00:57:49;96398.56;;;10.96;65.49
71621;BME280;59471;42.254;23.102;2022-10-31T01:00:15;96391.56;;;10.63;66.74
71621;BME280;59471;42.254;23.102;2022-10-31T01:02:41;96388.44;;;10.76;66.59
71621;BME280;59471;42.254;23.102;2022-10-31T01:05:06;96392.06;;;10.67;67.04
71621;BME280;59471;42.254;23.102;2022-10-31T01:07:35;96391.06;;;10.60;67.63
71621;BME280;59471;42.254;23.102;2022-10-31T01:10:03;96384.19;;;10.83;65.82
71621;BME280;59471;42.254;23.102;2022-10-31T01:12:36;96383.19;;;10.68;66.65
71621;BME280;59471;42.254;23.102;2022-10-31T01:15:02;96383.84;;;10.95;66.27
71621;BME280;59471;42.254;23.102;2022-10-31T01:17:28;96383.88;;;10.78;66.86
71621;BME280;59471;42.254;23.102;2022-10-31T01:19:53;96394.34;;;10.78;66.32
71621;BME280;59471;42.254;23.102;2022-10-31T01:22:20;96392.84;;;10.84;66.00
71621;BME280;59471;42.254;23.102;2022-10-31T01:24:46;96392.03;;;10.59;66.54
71621;BME280;59471;42.254;23.102;2022-10-31T01:27:11;96392.38;;;10.64;66.46
71621;BME280;59471;42.254;23.102;2022-10-31T01:29:37;96391.97;;;10.10;67.74
71621;BME280;59471;42.254;23.102;2022-10-31T01:32:02;96396.88;;;10.13;68.92
71621;BME280;59471;42.254;23.102;2022-10-31T01:34:28;96396.97;;;10.37;67.03
71621;BME280;59471;42.254;23.102;2022-10-31T01:36:54;96391.22;;;10.34;67.20
71621;BME280;59471;42.254;23.102;2022-10-31T01:39:19;96395.94;;;10.30;67.28
71621;BME280;59471;42.254;23.102;2022-10-31T01:41:48;96390.69;;;10.22;67.30
71621;BME280;59471;42.254;23.102;2022-10-31T01:46:45;96395.06;;;9.97;68.37
71621;BME280;59471;42.254;23.102;2022-10-31T01:54:45;96396.50;;;9.91;68.74
71621;BME280;59471;42.254;23.102;2022-10-31T01:57:17;96403.28;;;10.18;68.42
71621;BME280;59471;42.254;23.102;2022-10-31T01:59:47;96397.13;;;10.28;67.26
71621;BME280;59471;42.254;23.102;2022-10-31T02:02:16;96393.31;;;10.22;67.31
71621;BME280;59471;42.254;23.102;2022-10-31T02:04:42;96400.53;;;10.36;67.40
71621;BME280;59471;42.254;23.102;2022-10-31T02:07:18;96397.28;;;10.83;66.08
71621;BME280;59471;42.254;23.102;2022-10-31T02:09:47;96388.13;;;10.71;65.36
71621;BME280;59471;42.254;23.102;2022-10-31T02:12:15;96386.31;;;10.72;65.18
71621;BME280;59471;42.254;23.102;2022-10-31T02:14:41;96381.75;;;10.41;66.74
71621;BME280;59471;42.254;23.102;2022-10-31T02:17:07;96382.19;;;10.94;65.53
71621;BME280;59471;42.254;23.102;2022-10-31T02:20:00;96380.59;;;10.43;66.78
71621;BME280;59471;42.254;23.102;2022-10-31T02:22:50;96385.19;;;10.66;66.40
71621;BME280;59471;42.254;23.102;2022-10-31T02:34:53;96382.84;;;10.87;65.10
71621;BME280;59471;42.254;23.102;2022-10-31T02:37:37;96370.75;;;10.70;65.73
71621;BME280;59471;42.254;23.102;2022-10-31T02:40:21;96371.44;;;10.64;66.94
71621;BME280;59471;42.254;23.102;2022-10-31T02:45:42;96368.16;;;10.78;66.70
71621;BME280;59471;42.254;23.102;2022-10-31T02:48:17;96363.50;;;10.97;65.74
71621;BME280;59471;42.254;23.102;2022-10-31T02:50:49;96367.41;;;11.17;65.75
71621;BME280;59471;42.254;23.102;2022-10-31T02:53:18;96363.13;;;11.24;65.50
71621;BME280;59471;42.254;23.102;2022-10-31T02:55:54;96364.50;;;11.04;65.90
71621;BME280;59471;42.254;23.102;2022-10-31T02:58:25;96359.13;;;10.89;66.12
71621;BME280;59471;42.254;23.102;2022-10-31T03:06:35;96364.41;;;11.28;65.14
71621;BME280;59471;42.254;23.102;2022-10-31T03:14:29;96366.19;;;10.72;65.57
71621;BME280;59471;42.254;23.102;2022-10-31T03:17:02;96362.25;;;10.76;66.45
71621;BME280;59471;42.254;23.102;2022-10-31T03:19:35;96365.22;;;10.57;67.36
71621;BME280;59471;42.254;23.102;2022-10-31T03:22:25;96369.47;;;10.66;66.70
71621;BME280;59471;42.254;23.102;2022-10-31T03:24:54;96374.03;;;10.88;65.95
71621;BME280;59471;42.254;23.102;2022-10-31T03:27:25;96378.13;;;10.75;65.84
71621;BME280;59471;42.254;23.102;2022-10-31T03:29:54;96373.06;;;10.81;66.60
71621;BME280;59471;42.254;23.102;2022-10-31T03:32:29;96382.03;;;10.87;66.14
71621;BME280;59471;42.254;23.102;2022-10-31T03:35:01;96379.94;;;10.66;67.03
71621;BME280;59471;42.254;23.102;2022-10-31T03:37:31;96388.78;;;10.73;65.99
71621;BME280;59471;42.254;23.102;2022-10-31T03:39:59;96394.34;;;10.95;66.11
71621;BME280;59471;42.254;23.102;2022-10-31T03:42:29;96398.25;;;10.90;66.73
71621;BME280;59471;42.254;23.102;2022-10-31T03:45:11;96400.22;;;11.05;65.12
71621;BME280;59471;42.254;23.102;2022-10-31T03:47:39;96398.34;;;11.30;64.37
71621;BME280;59471;42.254;23.102;2022-10-31T03:50:06;96406.03;;;11.40;64.78
71621;BME280;59471;42.254;23.102;2022-10-31T03:55:12;96412.31;;;11.14;65.29
71621;BME280;59471;42.254;23.102;2022-10-31T04:00:16;96404.13;;;11.17;65.01
71621;BME280;59471;42.254;23.102;2022-10-31T04:02:49;96408.66;;;11.40;64.82
71621;BME280;59471;42.254;23.102;2022-10-31T04:05:20;96405.75;;;11.18;65.30
71621;BME280;59471;42.254;23.102;2022-10-31T04:07:47;96420.09;;;11.47;64.58
71621;BME280;59471;42.254;23.102;2022-10-31T04:10:16;96422.22;;;11.51;64.32
71621;BME280;59471;42.254;23.102;2022-10-31T04:12:47;96417.31;;;11.48;63.91
71621;BME280;59471;42.254;23.102;2022-10-31T04:15:15;96416.22;;;11.18;65.66
71621;BME280;59471;42.254;23.102;2022-10-31T04:17:44;96424.00;;;11.59;64.12
71621;BME280;59471;42.254;23.102;2022-10-31T04:20:15;96419.50;;;11.20;65.40
71621;BME280;59471;42.254;23.102;2022-10-31T04:22:41;96424.44;;;11.23;65.47
71621;BME280;59471;42.254;23.102;2022-10-31T04:25:07;96419.50;;;11.20;65.40
71621;BME280;59471;42.254;23.102;2022-10-31T04:27:33;96423.19;;;11.50;65.04
71621;BME280;59471;42.254;23.102;2022-10-31T04:29:58;96417.19;;;11.33;65.48
71621;BME280;59471;42.254;23.102;2022-10-31T04:32:25;96427.00;;;11.48;65.47
71621;BME280;59471;42.254;23.102;2022-10-31T04:34:50;96420.22;;;11.53;63.49
71621;BME280;59471;42.254;23.102;2022-10-31T04:37:16;96426.81;;;11.49;65.35
71621;BME280;59471;42.254;23.102;2022-10-31T04:39:41;96420.63;;;11.42;65.08
71621;BME280;59471;42.254;23.102;2022-10-31T04:42:07;96419.19;;;11.23;66.17
71621;BME280;59471;42.254;23.102;2022-10-31T04:44:32;96416.19;;;11.34;65.13
71621;BME280;59471;42.254;23.102;2022-10-31T04:46:58;96417.13;;;11.58;65.20
71621;BME280;59471;42.254;23.102;2022-10-31T04:49:24;96418.34;;;11.87;63.67
71621;BME280;59471;42.254;23.102;2022-10-31T04:51:49;96421.78;;;11.87;63.21
71621;BME280;59471;42.254;23.102;2022-10-31T04:54:15;96420.69;;;11.73;63.72
71621;BME280;59471;42.254;23.102;2022-10-31T04:56:40;96419.34;;;11.86;63.52
71621;BME280;59471;42.254;23.102;2022-10-31T04:59:06;96423.09;;;11.83;63.81
71621;BME280;59471;42.254;23.102;2022-10-31T05:01:31;96429.50;;;11.72;64.29
71621;BME280;59471;42.254;23.102;2022-10-31T05:03:57;96433.50;;;12.08;62.82
71621;BME280;59471;42.254;23.102;2022-10-31T05:06:22;96427.50;;;11.91;63.23
71621;BME280;59471;42.254;23.102;2022-10-31T05:08:48;96424.59;;;11.86;63.22
71621;BME280;59471;42.254;23.102;2022-10-31T05:11:13;96431.19;;;11.73;63.94
71621;BME280;59471;42.254;23.102;2022-10-31T05:13:39;96442.44;;;11.90;63.88
71621;BME280;59471;42.254;23.102;2022-10-31T05:16:04;96437.25;;;12.13;62.65
71621;BME280;59471;42.254;23.102;2022-10-31T05:18:30;96446.19;;;11.96;63.25
71621;BME280;59471;42.254;23.102;2022-10-31T05:20:56;96432.75;;;11.91;62.87
71621;BME280;59471;42.254;23.102;2022-10-31T05:23:21;96435.03;;;11.94;63.12
71621;BME280;59471;42.254;23.102;2022-10-31T05:25:47;96436.06;;;12.24;62.13
71621;BME280;59471;42.254;23.102;2022-10-31T05:28:12;96435.88;;;12.25;62.44
71621;BME280;59471;42.254;23.102;2022-10-31T05:30:38;96439.84;;;12.21;62.18
71621;BME280;59471;42.254;23.102;2022-10-31T05:33:03;96437.78;;;12.32;63.01
71621;BME280;59471;42.254;23.102;2022-10-31T05:35:30;96445.00;;;12.38;62.15
71621;BME280;59471;42.254;23.102;2022-10-31T05:37:57;96436.09;;;12.39;62.21
71621;BME280;59471;42.254;23.102;2022-10-31T05:40:23;96447.34;;;12.33;62.10
71621;BME280;59471;42.254;23.102;2022-10-31T05:42:51;96443.13;;;12.23;62.11
71621;BME280;59471;42.254;23.102;2022-10-31T05:45:18;96440.78;;;12.28;62.39
71621;BME280;59471;42.254;23.102;2022-10-31T05:47:56;96454.09;;;12.50;61.35
71621;BME280;59471;42.254;23.102;2022-10-31T05:50:24;96443.25;;;12.30;62.23
71621;BME280;59471;42.254;23.102;2022-10-31T05:52:58;96456.88;;;12.25;62.05
71621;BME280;59471;42.254;23.102;2022-10-31T05:55:29;96452.19;;;12.13;62.72
71621;BME280;59471;42.254;23.102;2022-10-31T05:57:55;96454.91;;;12.27;62.34
71621;BME280;59471;42.254;23.102;2022-10-31T06:00:22;96469.31;;;12.32;62.17
71621;BME280;59471;42.254;23.102;2022-10-31T06:02:49;96467.72;;;12.22;62.25
71621;BME280;59471;42.254;23.102;2022-10-31T06:05:15;96465.75;;;12.24;62.57
71621;BME280;59471;42.254;23.102;2022-10-31T06:07:42;96466.34;;;12.35;61.74
71621;BME280;59471;42.254;23.102;2022-10-31T06:10:08;96468.69;;;12.29;62.24
71621;BME280;59471;42.254;23.102;2022-10-31T06:12:35;96474.13;;;12.20;63.03
71621;BME280;59471;42.254;23.102;2022-10-31T06:15:07;96477.28;;;12.15;62.22
71621;BME280;59471;42.254;23.102;2022-10-31T06:17:34;96467.78;;;12.14;62.93
71621;BME280;59471;42.254;23.102;2022-10-31T06:20:00;96483.13;;;12.25;62.72
71621;BME280;59471;42.254;23.102;2022-10-31T06:22:26;96485.13;;;12.23;62.42
71621;BME280;59471;42.254;23.102;2022-10-31T06:24:52;96470.06;;;12.17;62.69
71621;BME280;59471;42.254;23.102;2022-10-31T06:27:18;96482.44;;;12.32;62.73
71621;BME280;59471;42.254;23.102;2022-10-31T06:29:43;96484.50;;;12.13;63.13
71621;BME280;59471;42.254;23.102;2022-10-31T06:32:11;96489.13;;;12.42;61.97
71621;BME280;59471;42.254;23.102;2022-10-31T06:34:38;96490.97;;;12.34;63.00
71621;BME280;59471;42.254;23.102;2022-10-31T06:37:08;96495.97;;;12.20;62.38
71621;BME280;59471;42.254;23.102;2022-10-31T06:39:35;96487.22;;;12.28;63.20
71621;BME280;59471;42.254;23.102;2022-10-31T06:42:01;96486.53;;;12.65;61.30
71621;BME280;59471;42.254;23.102;2022-10-31T06:44:27;96491.81;;;12.57;61.26
71621;BME280;59471;42.254;23.102;2022-10-31T06:46:52;96490.53;;;12.53;62.15
71621;BME280;59471;42.254;23.102;2022-10-31T06:49:18;96497.28;;;12.79;61.91
71621;BME280;59471;42.254;23.102;2022-10-31T06:51:47;96489.25;;;12.95;61.69
71621;BME280;59471;42.254;23.102;2022-10-31T06:54:13;96486.69;;;13.33;59.65
71621;BME280;59471;42.254;23.102;2022-10-31T06:56:39;96493.00;;;13.76;58.74
71621;BME280;59471;42.254;23.102;2022-10-31T06:59:04;96493.25;;;13.96;57.61
71621;BME280;59471;42.254;23.102;2022-10-31T07:01:30;96488.91;;;14.03;57.63
71621;BME280;59471;42.254;23.102;2022-10-31T07:03:55;96500.94;;;14.27;56.77
71621;BME280;59471;42.254;23.102;2022-10-31T07:06:21;96497.13;;;14.30;56.93
71621;BME280;59471;42.254;23.102;2022-10-31T07:08:47;96495.75;;;14.34;56.91
71621;BME280;59471;42.254;23.102;2022-10-31T07:11:12;96494.06;;;14.26;57.36
71621;BME280;59471;42.254;23.102;2022-10-31T07:13:38;96490.50;;;14.34;56.54
71621;BME280;59471;42.254;23.102;2022-10-31T07:16:04;96499.50;;;14.54;56.06
71621;BME280;59471;42.254;23.102;2022-10-31T07:18:32;96494.66;;;14.58;56.10
71621;BME280;59471;42.254;23.102;2022-10-31T07:20:58;96495.94;;;14.83;56.19
71621;BME280;59471;42.254;23.102;2022-10-31T07:23:23;96490.72;;;14.90;55.32
71621;BME280;59471;42.254;23.102;2022-10-31T07:25:54;96487.06;;;15.13;55.13
71621;BME280;59471;42.254;23.102;2022-10-31T07:28:21;96494.97;;;15.13;55.36
71621;BME280;59471;42.254;23.102;2022-10-31T07:30:50;96485.75;;;15.23;55.03
71621;BME280;59471;42.254;23.102;2022-10-31T07:33:16;96483.16;;;15.30;54.55
71621;BME280;59471;42.254;23.102;2022-10-31T07:35:42;96483.50;;;15.48;54.28
71621;BME280;59471;42.254;23.102;2022-10-31T07:38:09;96478.69;;;15.59;54.44
71621;BME280;59471;42.254;23.102;2022-10-31T07:40:37;96477.19;;;15.71;54.41
71621;BME280;59471;42.254;23.102;2022-10-31T07:43:03;96475.63;;;15.83;53.90
71621;BME280;59471;42.254;23.102;2022-10-31T07:45:29;96471.28;;;16.10;53.60
71621;BME280;59471;42.254;23.102;2022-10-31T07:47:54;96479.47;;;16.22;53.30
71621;BME280;59471;42.254;23.102;2022-10-31T07:50:23;96477.66;;;16.29;53.44
71621;BME280;59471;42.254;23.102;2022-10-31T07:55:29;96476.00;;;16.76;51.93
71621;BME280;59471;42.254;23.102;2022-10-31T07:58:07;96472.16;;;16.85;51.01
71621;BME280;59471;42.254;23.102;2022-10-31T08:00:38;96461.53;;;16.72;51.51
71621;BME280;59471;42.254;23.102;2022-10-31T08:03:16;96466.69;;;16.94;51.66
71621;BME280;59471;42.254;23.102;2022-10-31T08:05:42;96449.19;;;17.06;51.68
71621;BME280;59471;42.254;23.102;2022-10-31T08:08:11;96461.41;;;17.20;50.57
71621;BME280;59471;42.254;23.102;2022-10-31T08:10:38;96462.22;;;17.54;50.23
71621;BME280;59471;42.254;23.102;2022-10-31T08:13:09;96457.69;;;17.74;49.59
71621;BME280;59471;42.254;23.102;2022-10-31T08:15:36;96456.88;;;17.80;49.70
71621;BME280;59471;42.254;23.102;2022-10-31T08:18:13;96459.53;;;17.94;49.35
71621;BME280;59471;42.254;23.102;2022-10-31T08:20:41;96448.25;;;18.05;48.93
71621;BME280;59471;42.254;23.102;2022-10-31T08:23:09;96452.66;;;18.24;48.75
71621;BME280;59471;42.254;23.102;2022-10-31T08:25:36;96448.09;;;18.45;47.99
71621;BME280;59471;42.254;23.102;2022-10-31T08:28:02;96450.94;;;18.43;48.31
71621;BME280;59471;42.254;23.102;2022-10-31T08:30:30;96442.75;;;18.51;47.91
71621;BME280;59471;42.254;23.102;2022-10-31T08:33:23;96443.66;;;18.70;47.11
71621;BME280;59471;42.254;23.102;2022-10-31T08:35:49;96440.09;;;18.90;47.02
71621;BME280;59471;42.254;23.102;2022-10-31T08:38:15;96435.53;;;18.97;47.04
71621;BME280;59471;42.254;23.102;2022-10-31T08:40:40;96440.00;;;19.03;46.46
71621;BME280;59471;42.254;23.102;2022-10-31T08:43:16;96448.47;;;19.18;46.21
71621;BME280;59471;42.254;23.102;2022-10-31T08:45:43;96448.13;;;19.08;46.06
71621;BME280;59471;42.254;23.102;2022-10-31T08:48:14;96439.03;;;19.22;46.27
71621;BME280;59471;42.254;23.102;2022-10-31T08:50:43;96435.84;;;19.39;45.33
71621;BME280;59471;42.254;23.102;2022-10-31T08:53:15;96433.19;;;19.39;45.73
71621;BME280;59471;42.254;23.102;2022-10-31T08:55:43;96435.09;;;19.50;45.11
71621;BME280;59471;42.254;23.102;2022-10-31T08:58:12;96443.13;;;19.68;44.96
71621;BME280;59471;42.254;23.102;2022-10-31T09:00:39;96437.81;;;19.68;45.30
71621;BME280;59471;42.254;23.102;2022-10-31T09:03:08;96443.50;;;19.72;44.65
71621;BME280;59471;42.254;23.102;2022-10-31T09:05:37;96444.56;;;19.89;44.55
71621;BME280;59471;42.254;23.102;2022-10-31T09:08:04;96443.59;;;20.02;43.94
71621;BME280;59471;42.254;23.102;2022-10-31T09:10:32;96440.63;;;19.92;43.98
71621;BME280;59471;42.254;23.102;2022-10-31T09:13:01;96432.97;;;20.02;44.21
71621;BME280;59471;42.254;23.102;2022-10-31T09:15:27;96428.66;;;20.01;44.00
71621;BME280;59471;42.254;23.102;2022-10-31T09:17:54;96429.56;;;20.13;43.51
71621;BME280;59471;42.254;23.102;2022-10-31T09:20:20;96438.56;;;20.31;43.66
71621;BME280;59471;42.254;23.102;2022-10-31T09:22:46;96437.66;;;20.55;43.12
71621;BME280;59471;42.254;23.102;2022-10-31T09:25:12;96430.13;;;20.52;42.74
71621;BME280;59471;42.254;23.102;2022-10-31T09:27:37;96426.69;;;20.45;43.57
71621;BME280;59471;42.254;23.102;2022-10-31T09:30:04;96422.41;;;20.63;43.45
71621;BME280;59471;42.254;23.102;2022-10-31T09:32:30;96418.66;;;20.52;43.04
71621;BME280;59471;42.254;23.102;2022-10-31T09:34:55;96421.50;;;20.69;42.78
71621;BME280;59471;42.254;23.102;2022-10-31T09:37:21;96421.03;;;20.72;42.38
71621;BME280;59471;42.254;23.102;2022-10-31T09:39:46;96422.22;;;20.76;42.12
71621;BME280;59471;42.254;23.102;2022-10-31T09:48:17;96413.16;;;20.77;42.51
71621;BME280;59471;42.254;23.102;2022-10-31T09:51:08;96432.66;;;20.89;41.74
71621;BME280;59471;42.254;23.102;2022-10-31T09:56:21;96418.81;;;21.11;41.21
71621;BME280;59471;42.254;23.102;2022-10-31T09:58:51;96421.16;;;21.19;41.50
71621;BME280;59471;42.254;23.102;2022-10-31T10:01:49;96405.41;;;21.29;41.43
71621;BME280;59471;42.254;23.102;2022-10-31T10:06:58;96400.53;;;21.49;41.03
71621;BME280;59471;42.254;23.102;2022-10-31T10:09:28;96395.47;;;21.60;40.30
71621;BME280;59471;42.254;23.102;2022-10-31T10:12:28;96397.53;;;21.58;40.31
71621;BME280;59471;42.254;23.102;2022-10-31T10:15:47;96393.09;;;21.75;40.29
71621;BME280;59471;42.254;23.102;2022-10-31T10:18:48;96404.69;;;21.92;39.56
71621;BME280;59471;42.254;23.102;2022-10-31T10:21:39;96397.94;;;22.02;39.42
71621;BME280;59471;42.254;23.102;2022-10-31T10:27:49;96392.19;;;22.33;38.51
71621;BME280;59471;42.254;23.102;2022-10-31T10:30:22;96389.78;;;22.49;39.08
71621;BME280;59471;42.254;23.102;2022-10-31T10:32:59;96388.78;;;22.83;38.31
71621;BME280;59471;42.254;23.102;2022-10-31T10:35:41;96379.72;;;22.84;37.52
71621;BME280;59471;42.254;23.102;2022-10-31T10:40:54;96376.66;;;22.93;37.44
71621;BME280;59471;42.254;23.102;2022-10-31T10:51:58;96363.84;;;22.61;37.43
71621;BME280;59471;42.254;23.102;2022-10-31T11:02:58;96365.13;;;22.41;38.06
71621;BME280;59471;42.254;23.102;2022-10-31T11:08:02;96366.63;;;22.37;38.05
71621;BME280;59471;42.254;23.102;2022-10-31T11:10:29;96361.22;;;22.32;37.90
71621;BME280;59471;42.254;23.102;2022-10-31T11:15:56;96357.06;;;22.13;38.46
71621;BME280;59471;42.254;23.102;2022-10-31T11:18:27;96351.88;;;22.06;38.65
71621;BME280;59471;42.254;23.102;2022-10-31T11:20:57;96345.19;;;21.92;39.08
71621;BME280;59471;42.254;23.102;2022-10-31T11:23:27;96346.81;;;21.93;39.16
71621;BME280;59471;42.254;23.102;2022-10-31T11:26:16;96343.63;;;21.79;39.37
71621;BME280;59471;42.254;23.102;2022-10-31T11:28:58;96345.53;;;21.95;38.63
71621;BME280;59471;42.254;23.102;2022-10-31T11:31:25;96340.50;;;22.11;38.41
71621;BME280;59471;42.254;23.102;2022-10-31T11:34:00;96343.06;;;22.17;38.12
71621;BME280;59471;42.254;23.102;2022-10-31T11:36:30;96337.47;;;22.19;37.57
71621;BME280;59471;42.254;23.102;2022-10-31T11:38:59;96341.47;;;22.33;37.70
71621;BME280;59471;42.254;23.102;2022-10-31T11:41:30;96345.25;;;22.20;37.23
71621;BME280;59471;42.254;23.102;2022-10-31T11:49:50;96336.50;;;22.87;35.24
71621;BME280;59471;42.254;23.102;2022-10-31T11:52:18;96330.78;;;23.12;35.46
71621;BME280;59471;42.254;23.102;2022-10-31T11:54:49;96324.06;;;23.27;34.89
71621;BME280;59471;42.254;23.102;2022-10-31T11:59:55;96327.50;;;23.66;34.32
71621;BME280;59471;42.254;23.102;2022-10-31T12:02:23;96328.50;;;23.60;35.22
71621;BME280;59471;42.254;23.102;2022-10-31T12:05:05;96322.25;;;23.71;34.66
71621;BME280;59471;42.254;23.102;2022-10-31T12:07:33;96321.19;;;23.72;34.15
71621;BME280;59471;42.254;23.102;2022-10-31T12:09:59;96313.91;;;23.68;34.50
71621;BME280;59471;42.254;23.102;2022-10-31T12:12:43;96316.22;;;23.81;34.51
71621;BME280;59471;42.254;23.102;2022-10-31T12:31:57;96319.31;;;23.95;34.47
71621;BME280;59471;42.254;23.102;2022-10-31T12:52:19;96327.34;;;23.95;33.67
71621;BME280;59471;42.254;23.102;2022-10-31T12:57:54;96333.06;;;23.81;33.70
71621;BME280;59471;42.254;23.102;2022-10-31T13:00:24;96333.47;;;23.90;33.31
71621;BME280;59471;42.254;23.102;2022-10-31T13:03:04;96337.84;;;23.79;33.31
71621;BME280;59471;42.254;23.102;2022-10-31T13:05:45;96340.72;;;23.95;33.03
71621;BME280;59471;42.254;23.102;2022-10-31T13:08:20;96340.59;;;23.85;33.62
71621;BME280;59471;42.254;23.102;2022-10-31T13:11:02;96346.63;;;23.75;33.75
71621;BME280;59471;42.254;23.102;2022-10-31T13:14:02;96341.03;;;23.76;33.61
71621;BME280;59471;42.254;23.102;2022-10-31T13:16:50;96349.53;;;23.73;33.93
71621;BME280;59471;42.254;23.102;2022-10-31T13:19:21;96345.84;;;23.74;33.79
71621;BME280;59471;42.254;23.102;2022-10-31T13:24:40;96344.34;;;23.67;33.80
71621;BME280;59471;42.254;23.102;2022-10-31T13:27:26;96338.19;;;23.66;33.67
71621;BME280;59471;42.254;23.102;2022-10-31T13:30:19;96351.00;;;23.64;33.92
71621;BME280;59471;42.254;23.102;2022-10-31T13:42:22;96345.53;;;23.54;34.86
71621;BME280;59471;42.254;23.102;2022-10-31T13:44:51;96346.00;;;23.51;34.21
71621;BME280;59471;42.254;23.102;2022-10-31T13:47:27;96351.19;;;23.57;33.99
71621;BME280;59471;42.254;23.102;2022-10-31T13:50:06;96349.69;;;23.45;34.66
71621;BME280;59471;42.254;23.102;2022-10-31T13:52:45;96348.88;;;23.44;34.90
71621;BME280;59471;42.254;23.102;2022-10-31T13:58:04;96348.69;;;23.51;34.51
71621;BME280;59471;42.254;23.102;2022-10-31T14:00:44;96346.06;;;23.34;35.04
71621;BME280;59471;42.254;23.102;2022-10-31T14:03:19;96352.06;;;23.24;34.86
71621;BME280;59471;42.254;23.102;2022-10-31T14:05:52;96354.81;;;23.29;34.69
71621;BME280;59471;42.254;23.102;2022-10-31T14:08:21;96356.25;;;23.20;34.77
71621;BME280;59471;42.254;23.102;2022-10-31T14:10:50;96354.81;;;23.29;34.88
71621;BME280;59471;42.254;23.102;2022-10-31T14:13:33;96350.03;;;23.31;35.12
71621;BME280;59471;42.254;23.102;2022-10-31T14:16:27;96353.38;;;23.05;35.47
71621;BME280;59471;42.254;23.102;2022-10-31T14:19:13;96353.22;;;23.11;35.16
71621;BME280;59471;42.254;23.102;2022-10-31T14:21:43;96353.38;;;23.05;35.69
71621;BME280;59471;42.254;23.102;2022-10-31T14:26:57;96356.44;;;22.80;36.23
71621;BME280;59471;42.254;23.102;2022-10-31T14:29:33;96358.19;;;22.74;35.41
71621;BME280;59471;42.254;23.102;2022-10-31T14:46:42;96361.00;;;22.22;36.88
71621;BME280;59471;42.254;23.102;2022-10-31T14:48:57;96367.28;;;22.16;37.36
71621;BME280;59471;42.254;23.102;2022-10-31T14:51:47;96354.31;;;22.08;37.19
71621;BME280;59471;42.254;23.102;2022-10-31T14:54:29;96363.72;;;21.98;37.62
71621;BME280;59471;42.254;23.102;2022-10-31T14:57:03;96359.97;;;21.71;37.90
71621;BME280;59471;42.254;23.102;2022-10-31T14:59:35;96360.41;;;21.91;37.68
71621;BME280;59471;42.254;23.102;2022-10-31T15:02:28;96359.84;;;21.78;37.71
71621;BME280;59471;42.254;23.102;2022-10-31T15:05:00;96359.50;;;21.62;38.25
71621;BME280;59471;42.254;23.102;2022-10-31T15:07:27;96352.56;;;21.49;38.52
71621;BME280;59471;42.254;23.102;2022-10-31T15:12:27;96362.44;;;21.49;38.55
71621;BME280;59471;42.254;23.102;2022-10-31T15:14:55;96364.53;;;21.47;38.44
71621;BME280;59471;42.254;23.102;2022-10-31T15:17:22;96364.84;;;21.27;39.09
71621;BME280;59471;42.254;23.102;2022-10-31T15:19:49;96364.03;;;21.26;39.30
71621;BME280;59471;42.254;23.102;2022-10-31T15:22:21;96366.69;;;21.15;39.07
71621;BME280;59471;42.254;23.102;2022-10-31T15:24:49;96365.53;;;21.34;38.45
71621;BME280;59471;42.254;23.102;2022-10-31T15:27:21;96378.75;;;21.29;38.87
71621;BME280;59471;42.254;23.102;2022-10-31T15:29:53;96369.84;;;21.00;39.35
71621;BME280;59471;42.254;23.102;2022-10-31T15:32:27;96378.06;;;21.22;38.98
71621;BME280;59471;42.254;23.102;2022-10-31T15:34:55;96371.94;;;20.68;40.38
71621;BME280;59471;42.254;23.102;2022-10-31T15:37:23;96380.81;;;21.03;39.71
71621;BME280;59471;42.254;23.102;2022-10-31T15:39:50;96380.31;;;20.83;39.95
71621;BME280;59471;42.254;23.102;2022-10-31T15:42:28;96378.72;;;20.22;42.15
71621;BME280;59471;42.254;23.102;2022-10-31T15:47:35;96371.66;;;19.42;44.53
71621;BME280;59471;42.254;23.102;2022-10-31T15:50:02;96374.59;;;19.34;44.86